sensor_id;sensor_type;location;lat;lon;timestamp;temperature;humidity
20524;DHT22;10420;48.542;12.270;2023-04-06T00:04:39;-1.80;99.90
20524;DHT22;10420;48.542;12.270;2023-04-06T00:09:40;-1.80;99.90
20524;DHT22;10420;48.542;12.270;2023-04-06T00:14:41;-1.90;99.90
20524;DHT22;10420;48.542;12.270;2023-04-06T00:19:41;-1.90;99.90
20524;DHT22;10420;48.542;12.270;2023-04-06T00:24:42;-1.90;99.90
20524;DHT22;10420;48.542;12.270;2023-04-06T00:29:44;-1.90;99.90
20524;DHT22;10420;48.542;12.270;2023-04-06T00:34:45;-2.00;99.90
20524;DHT22;10420;48.542;12.270;2023-04-06T00:39:46;-2.00;99.90
20524;DHT22;10420;48.542;12.270;2023-04-06T00:44:46;-2.10;99.90
20524;DHT22;10420;48.542;12.270;2023-04-06T00:49:47;-2.10;99.90
20524;DHT22;10420;48.542;12.270;2023-04-06T00:54:49;-2.10;99.90
20524;DHT22;10420;48.542;12.270;2023-04-06T00:59:52;-2.20;99.90
20524;DHT22;10420;48.542;12.270;2023-04-06T01:04:53;-2.20;99.90
20524;DHT22;10420;48.542;12.270;2023-04-06T01:09:54;-2.20;99.90
20524;DHT22;10420;48.542;12.270;2023-04-06T01:14:55;-2.20;99.90
20524;DHT22;10420;48.542;12.270;2023-04-06T01:19:56;-2.30;99.90
20524;DHT22;10420;48.542;12.270;2023-04-06T01:24:57;-2.30;99.90
20524;DHT22;10420;48.542;12.270;2023-04-06T01:29:57;-2.30;99.90
20524;DHT22;10420;48.542;12.270;2023-04-06T01:34:58;-2.40;99.90
20524;DHT22;10420;48.542;12.270;2023-04-06T01:39:59;-2.40;99.90
20524;DHT22;10420;48.542;12.270;2023-04-06T01:45:00;-2.40;99.90
20524;DHT22;10420;48.542;12.270;2023-04-06T01:50:01;-2.40;99.90
20524;DHT22;10420;48.542;12.270;2023-04-06T01:55:05;-2.50;99.90
20524;DHT22;10420;48.542;12.270;2023-04-06T02:00:06;-2.40;99.90
20524;DHT22;10420;48.542;12.270;2023-04-06T02:05:08;-2.50;99.90
20524;DHT22;10420;48.542;12.270;2023-04-06T02:10:13;-2.60;99.90
20524;DHT22;10420;48.542;12.270;2023-04-06T02:15:14;-2.60;99.90
20524;DHT22;10420;48.542;12.270;2023-04-06T02:20:15;-2.60;99.90
20524;DHT22;10420;48.542;12.270;2023-04-06T02:25:16;-2.60;99.90
20524;DHT22;10420;48.542;12.270;2023-04-06T02:30:17;-2.60;99.90
20524;DHT22;10420;48.542;12.270;2023-04-06T02:35:18;-2.60;99.90
20524;DHT22;10420;48.542;12.270;2023-04-06T02:40:18;-2.60;99.90
20524;DHT22;10420;48.542;12.270;2023-04-06T02:45:19;-2.60;99.90
20524;DHT22;10420;48.542;12.270;2023-04-06T02:50:20;-2.70;99.90
20524;DHT22;10420;48.542;12.270;2023-04-06T02:55:20;-2.70;99.90
20524;DHT22;10420;48.542;12.270;2023-04-06T03:00:21;-2.70;99.90
20524;DHT22;10420;48.542;12.270;2023-04-06T03:05:23;-2.70;99.90
20524;DHT22;10420;48.542;12.270;2023-04-06T03:10:26;-2.60;99.90
20524;DHT22;10420;48.542;12.270;2023-04-06T03:15:27;-2.60;99.90
20524;DHT22;10420;48.542;12.270;2023-04-06T03:20:28;-2.60;99.90
20524;DHT22;10420;48.542;12.270;2023-04-06T03:25:28;-2.60;99.90
20524;DHT22;10420;48.542;12.270;2023-04-06T03:30:30;-2.70;99.90
20524;DHT22;10420;48.542;12.270;2023-04-06T03:35:31;-2.80;99.90
20524;DHT22;10420;48.542;12.270;2023-04-06T03:40:31;-2.80;99.90
20524;DHT22;10420;48.542;12.270;2023-04-06T03:45:32;-2.80;99.90
20524;DHT22;10420;48.542;12.270;2023-04-06T03:50:33;-2.90;99.90
20524;DHT22;10420;48.542;12.270;2023-04-06T03:55:33;-2.90;99.90
20524;DHT22;10420;48.542;12.270;2023-04-06T04:00:34;-2.90;99.90
20524;DHT22;10420;48.542;12.270;2023-04-06T04:05:35;-2.90;99.90
20524;DHT22;10420;48.542;12.270;2023-04-06T04:10:35;-2.90;99.90
20524;DHT22;10420;48.542;12.270;2023-04-06T04:15:36;-2.90;99.90
20524;DHT22;10420;48.542;12.270;2023-04-06T04:20:37;-2.90;99.90
20524;DHT22;10420;48.542;12.270;2023-04-06T04:25:37;-2.90;99.90
20524;DHT22;10420;48.542;12.270;2023-04-06T04:30:38;-2.90;99.90
20524;DHT22;10420;48.542;12.270;2023-04-06T04:35:38;-2.90;99.90
20524;DHT22;10420;48.542;12.270;2023-04-06T04:40:39;-2.90;99.90
20524;DHT22;10420;48.542;12.270;2023-04-06T04:45:40;-3.00;99.90
20524;DHT22;10420;48.542;12.270;2023-04-06T04:50:40;-2.90;99.90
20524;DHT22;10420;48.542;12.270;2023-04-06T04:55:41;-2.90;99.90
20524;DHT22;10420;48.542;12.270;2023-04-06T05:00:42;-2.80;99.90
20524;DHT22;10420;48.542;12.270;2023-04-06T05:05:43;-2.50;99.90
20524;DHT22;10420;48.542;12.270;2023-04-06T05:10:44;-2.20;99.90
20524;DHT22;10420;48.542;12.270;2023-04-06T05:15:45;-0.30;99.90
20524;DHT22;10420;48.542;12.270;2023-04-06T05:20:46;1.40;99.90
20524;DHT22;10420;48.542;12.270;2023-04-06T05:25:47;2.90;99.90
20524;DHT22;10420;48.542;12.270;2023-04-06T05:30:48;3.20;99.90
20524;DHT22;10420;48.542;12.270;2023-04-06T05:35:48;3.00;99.90
20524;DHT22;10420;48.542;12.270;2023-04-06T05:40:49;3.80;99.90
20524;DHT22;10420;48.542;12.270;2023-04-06T05:45:50;6.00;99.90
20524;DHT22;10420;48.542;12.270;2023-04-06T05:50:50;8.10;99.90
20524;DHT22;10420;48.542;12.270;2023-04-06T05:55:51;6.10;99.90
20524;DHT22;10420;48.542;12.270;2023-04-06T06:00:57;5.70;99.90
20524;DHT22;10420;48.542;12.270;2023-04-06T06:06:02;6.80;99.90
20524;DHT22;10420;48.542;12.270;2023-04-06T06:11:02;6.30;99.90
20524;DHT22;10420;48.542;12.270;2023-04-06T06:16:04;8.30;99.90
20524;DHT22;10420;48.542;12.270;2023-04-06T06:21:05;7.80;99.90
20524;DHT22;10420;48.542;12.270;2023-04-06T06:26:06;8.50;99.90
20524;DHT22;10420;48.542;12.270;2023-04-06T06:31:07;9.90;99.90
20524;DHT22;10420;48.542;12.270;2023-04-06T06:36:07;12.00;99.90
20524;DHT22;10420;48.542;12.270;2023-04-06T06:41:08;13.00;99.90
20524;DHT22;10420;48.542;12.270;2023-04-06T06:46:09;11.70;97.90
20524;DHT22;10420;48.542;12.270;2023-04-06T06:51:09;11.40;99.90
20524;DHT22;10420;48.542;12.270;2023-04-06T06:56:12;12.10;99.80
20524;DHT22;10420;48.542;12.270;2023-04-06T07:01:13;11.50;99.90
20524;DHT22;10420;48.542;12.270;2023-04-06T07:06:13;14.60;96.80
20524;DHT22;10420;48.542;12.270;2023-04-06T07:11:14;15.70;93.80
20524;DHT22;10420;48.542;12.270;2023-04-06T07:16:15;15.20;93.00
20524;DHT22;10420;48.542;12.270;2023-04-06T07:21:15;14.50;92.90
20524;DHT22;10420;48.542;12.270;2023-04-06T07:26:16;14.30;91.20
20524;DHT22;10420;48.542;12.270;2023-04-06T07:31:17;12.60;91.70
20524;DHT22;10420;48.542;12.270;2023-04-06T07:36:17;12.50;95.00
20524;DHT22;10420;48.542;12.270;2023-04-06T07:41:18;13.20;94.10
20524;DHT22;10420;48.542;12.270;2023-04-06T07:46:19;15.30;90.30
20524;DHT22;10420;48.542;12.270;2023-04-06T07:51:20;11.40;90.50
20524;DHT22;10420;48.542;12.270;2023-04-06T07:56:20;10.40;93.20
20524;DHT22;10420;48.542;12.270;2023-04-06T08:01:21;12.40;91.20
20524;DHT22;10420;48.542;12.270;2023-04-06T08:06:22;13.80;90.10
20524;DHT22;10420;48.542;12.270;2023-04-06T08:11:23;13.00;87.70
20524;DHT22;10420;48.542;12.270;2023-04-06T08:16:24;12.80;90.20
20524;DHT22;10420;48.542;12.270;2023-04-06T08:21:25;12.90;87.50
20524;DHT22;10420;48.542;12.270;2023-04-06T08:26:25;15.20;83.30
20524;DHT22;10420;48.542;12.270;2023-04-06T08:31:26;11.80;88.90
20524;DHT22;10420;48.542;12.270;2023-04-06T08:36:27;12.40;89.60
20524;DHT22;10420;48.542;12.270;2023-04-06T08:41:27;14.40;79.40
20524;DHT22;10420;48.542;12.270;2023-04-06T08:46:30;13.70;79.60
20524;DHT22;10420;48.542;12.270;2023-04-06T08:51:30;13.60;79.80
20524;DHT22;10420;48.542;12.270;2023-04-06T08:56:31;14.30;78.70
20524;DHT22;10420;48.542;12.270;2023-04-06T09:01:34;14.30;78.60
20524;DHT22;10420;48.542;12.270;2023-04-06T09:06:37;12.60;79.60
20524;DHT22;10420;48.542;12.270;2023-04-06T09:11:48;14.90;73.10
20524;DHT22;10420;48.542;12.270;2023-04-06T09:16:50;11.70;77.40
20524;DHT22;10420;48.542;12.270;2023-04-06T09:22:04;15.90;72.10
20524;DHT22;10420;48.542;12.270;2023-04-06T09:27:05;16.30;69.60
20524;DHT22;10420;48.542;12.270;2023-04-06T09:32:07;15.80;71.10
20524;DHT22;10420;48.542;12.270;2023-04-06T09:37:17;16.50;68.90
20524;DHT22;10420;48.542;12.270;2023-04-06T09:42:25;13.40;72.30
20524;DHT22;10420;48.542;12.270;2023-04-06T09:47:26;14.40;73.70
20524;DHT22;10420;48.542;12.270;2023-04-06T09:52:41;15.20;73.40
20524;DHT22;10420;48.542;12.270;2023-04-06T09:58:04;12.40;75.20
20524;DHT22;10420;48.542;12.270;2023-04-06T10:03:21;12.20;75.80
20524;DHT22;10420;48.542;12.270;2023-04-06T10:08:27;12.60;78.30
20524;DHT22;10420;48.542;12.270;2023-04-06T10:13:28;12.40;80.80
20524;DHT22;10420;48.542;12.270;2023-04-06T10:18:29;14.30;77.00
20524;DHT22;10420;48.542;12.270;2023-04-06T10:23:41;13.10;77.00
20524;DHT22;10420;48.542;12.270;2023-04-06T10:28:45;12.40;78.80
20524;DHT22;10420;48.542;12.270;2023-04-06T10:33:54;14.00;75.00
20524;DHT22;10420;48.542;12.270;2023-04-06T10:39:04;13.70;74.40
20524;DHT22;10420;48.542;12.270;2023-04-06T10:44:04;12.60;76.90
20524;DHT22;10420;48.542;12.270;2023-04-06T10:49:11;13.00;79.10
20524;DHT22;10420;48.542;12.270;2023-04-06T10:54:12;12.70;78.60
20524;DHT22;10420;48.542;12.270;2023-04-06T10:59:21;13.50;77.40
20524;DHT22;10420;48.542;12.270;2023-04-06T11:04:22;13.60;76.60
20524;DHT22;10420;48.542;12.270;2023-04-06T11:09:28;13.80;78.00
20524;DHT22;10420;48.542;12.270;2023-04-06T11:14:28;13.40;75.50
20524;DHT22;10420;48.542;12.270;2023-04-06T11:19:31;11.00;80.90
20524;DHT22;10420;48.542;12.270;2023-04-06T11:24:32;12.20;79.20
20524;DHT22;10420;48.542;12.270;2023-04-06T11:29:32;12.20;80.30
20524;DHT22;10420;48.542;12.270;2023-04-06T11:34:38;11.30;82.60
20524;DHT22;10420;48.542;12.270;2023-04-06T11:39:50;11.40;84.00
20524;DHT22;10420;48.542;12.270;2023-04-06T11:44:53;11.00;82.50
20524;DHT22;10420;48.542;12.270;2023-04-06T11:49:54;11.10;84.10
20524;DHT22;10420;48.542;12.270;2023-04-06T11:54:55;11.40;82.20
20524;DHT22;10420;48.542;12.270;2023-04-06T11:59:57;11.90;81.40
20524;DHT22;10420;48.542;12.270;2023-04-06T12:04:58;12.60;78.70
20524;DHT22;10420;48.542;12.270;2023-04-06T12:10:02;11.50;80.20
20524;DHT22;10420;48.542;12.270;2023-04-06T12:15:03;11.70;82.70
20524;DHT22;10420;48.542;12.270;2023-04-06T12:20:05;12.10;80.00
20524;DHT22;10420;48.542;12.270;2023-04-06T12:25:06;12.30;80.80
20524;DHT22;10420;48.542;12.270;2023-04-06T12:30:07;11.30;84.40
20524;DHT22;10420;48.542;12.270;2023-04-06T12:35:09;11.20;85.10
20524;DHT22;10420;48.542;12.270;2023-04-06T12:40:10;11.00;85.30
20524;DHT22;10420;48.542;12.270;2023-04-06T12:45:12;10.90;84.50
20524;DHT22;10420;48.542;12.270;2023-04-06T12:50:12;10.40;83.30
20524;DHT22;10420;48.542;12.270;2023-04-06T12:55:13;10.60;84.10
20524;DHT22;10420;48.542;12.270;2023-04-06T13:00:14;10.40;85.70
20524;DHT22;10420;48.542;12.270;2023-04-06T13:05:15;10.30;86.10
20524;DHT22;10420;48.542;12.270;2023-04-06T13:10:18;10.30;86.30
20524;DHT22;10420;48.542;12.270;2023-04-06T13:15:19;10.00;86.20
20524;DHT22;10420;48.542;12.270;2023-04-06T13:20:20;9.60;85.30
20524;DHT22;10420;48.542;12.270;2023-04-06T13:25:21;10.30;86.30
20524;DHT22;10420;48.542;12.270;2023-04-06T13:30:22;10.40;85.40
20524;DHT22;10420;48.542;12.270;2023-04-06T13:35:22;10.20;89.20
20524;DHT22;10420;48.542;12.270;2023-04-06T13:40:23;10.10;86.90
20524;DHT22;10420;48.542;12.270;2023-04-06T13:45:24;9.80;87.80
20524;DHT22;10420;48.542;12.270;2023-04-06T13:50:28;9.70;87.00
20524;DHT22;10420;48.542;12.270;2023-04-06T13:55:28;9.70;87.40
20524;DHT22;10420;48.542;12.270;2023-04-06T14:00:30;9.90;88.80
20524;DHT22;10420;48.542;12.270;2023-04-06T14:05:32;9.80;88.50
20524;DHT22;10420;48.542;12.270;2023-04-06T14:10:39;9.60;85.90
20524;DHT22;10420;48.542;12.270;2023-04-06T14:15:41;9.60;86.20
20524;DHT22;10420;48.542;12.270;2023-04-06T14:20:41;9.80;85.60
20524;DHT22;10420;48.542;12.270;2023-04-06T14:25:42;9.90;91.00
20524;DHT22;10420;48.542;12.270;2023-04-06T14:30:43;10.00;88.80
20524;DHT22;10420;48.542;12.270;2023-04-06T14:35:44;10.20;85.80
20524;DHT22;10420;48.542;12.270;2023-04-06T14:40:45;10.10;83.80
20524;DHT22;10420;48.542;12.270;2023-04-06T14:45:45;10.40;86.20
20524;DHT22;10420;48.542;12.270;2023-04-06T14:50:55;10.30;83.50
20524;DHT22;10420;48.542;12.270;2023-04-06T14:55:57;10.30;81.60
20524;DHT22;10420;48.542;12.270;2023-04-06T15:00:58;10.30;86.70
20524;DHT22;10420;48.542;12.270;2023-04-06T15:05:59;10.10;85.10
20524;DHT22;10420;48.542;12.270;2023-04-06T15:11:00;10.30;87.90
20524;DHT22;10420;48.542;12.270;2023-04-06T15:16:01;10.20;89.10
20524;DHT22;10420;48.542;12.270;2023-04-06T15:21:02;10.10;87.00
20524;DHT22;10420;48.542;12.270;2023-04-06T15:26:02;9.90;88.20
20524;DHT22;10420;48.542;12.270;2023-04-06T15:31:13;10.00;86.10
20524;DHT22;10420;48.542;12.270;2023-04-06T15:36:25;10.00;88.00
20524;DHT22;10420;48.542;12.270;2023-04-06T15:41:26;10.30;87.70
20524;DHT22;10420;48.542;12.270;2023-04-06T15:46:27;10.10;86.30
20524;DHT22;10420;48.542;12.270;2023-04-06T15:51:28;10.00;85.80
20524;DHT22;10420;48.542;12.270;2023-04-06T15:56:31;9.90;87.40
20524;DHT22;10420;48.542;12.270;2023-04-06T16:01:32;9.80;86.60
20524;DHT22;10420;48.542;12.270;2023-04-06T16:06:33;9.70;87.70
20524;DHT22;10420;48.542;12.270;2023-04-06T16:11:34;9.50;89.40
20524;DHT22;10420;48.542;12.270;2023-04-06T16:16:36;9.50;86.90
20524;DHT22;10420;48.542;12.270;2023-04-06T16:21:36;9.40;90.30
20524;DHT22;10420;48.542;12.270;2023-04-06T16:26:37;9.40;88.80
20524;DHT22;10420;48.542;12.270;2023-04-06T16:31:39;9.40;87.60
20524;DHT22;10420;48.542;12.270;2023-04-06T16:36:40;9.20;90.70
20524;DHT22;10420;48.542;12.270;2023-04-06T16:41:41;9.20;90.40
20524;DHT22;10420;48.542;12.270;2023-04-06T16:46:42;9.00;90.50
20524;DHT22;10420;48.542;12.270;2023-04-06T16:51:43;8.80;92.70
20524;DHT22;10420;48.542;12.270;2023-04-06T16:56:44;8.70;91.30
20524;DHT22;10420;48.542;12.270;2023-04-06T17:01:44;8.60;93.50
20524;DHT22;10420;48.542;12.270;2023-04-06T17:06:45;8.30;95.30
20524;DHT22;10420;48.542;12.270;2023-04-06T17:11:46;8.30;92.40
20524;DHT22;10420;48.542;12.270;2023-04-06T17:16:46;8.00;93.20
20524;DHT22;10420;48.542;12.270;2023-04-06T17:21:47;7.80;94.30
20524;DHT22;10420;48.542;12.270;2023-04-06T17:26:47;7.40;97.50
20524;DHT22;10420;48.542;12.270;2023-04-06T17:31:48;7.30;96.30
20524;DHT22;10420;48.542;12.270;2023-04-06T17:36:49;7.00;97.30
20524;DHT22;10420;48.542;12.270;2023-04-06T17:41:52;6.70;99.90
20524;DHT22;10420;48.542;12.270;2023-04-06T17:46:53;6.40;99.90
20524;DHT22;10420;48.542;12.270;2023-04-06T17:51:53;6.20;99.90
20524;DHT22;10420;48.542;12.270;2023-04-06T17:56:54;5.70;99.90
20524;DHT22;10420;48.542;12.270;2023-04-06T18:01:56;5.70;99.90
20524;DHT22;10420;48.542;12.270;2023-04-06T18:06:56;5.50;99.90
20524;DHT22;10420;48.542;12.270;2023-04-06T18:11:57;5.20;99.90
20524;DHT22;10420;48.542;12.270;2023-04-06T18:16:58;4.90;99.90
20524;DHT22;10420;48.542;12.270;2023-04-06T18:21:58;4.90;99.90
20524;DHT22;10420;48.542;12.270;2023-04-06T18:26:59;4.70;99.90
20524;DHT22;10420;48.542;12.270;2023-04-06T18:32:00;4.40;99.90
20524;DHT22;10420;48.542;12.270;2023-04-06T18:37:00;4.10;99.90
20524;DHT22;10420;48.542;12.270;2023-04-06T18:42:02;4.00;99.90
20524;DHT22;10420;48.542;12.270;2023-04-06T18:47:03;3.90;99.90
20524;DHT22;10420;48.542;12.270;2023-04-06T18:52:06;3.70;99.90
20524;DHT22;10420;48.542;12.270;2023-04-06T18:57:07;3.50;99.90
20524;DHT22;10420;48.542;12.270;2023-04-06T19:02:08;3.30;99.90
20524;DHT22;10420;48.542;12.270;2023-04-06T19:07:08;3.30;99.90
20524;DHT22;10420;48.542;12.270;2023-04-06T19:12:09;3.10;99.90
20524;DHT22;10420;48.542;12.270;2023-04-06T19:17:10;3.00;99.90
20524;DHT22;10420;48.542;12.270;2023-04-06T19:22:10;2.90;99.90
20524;DHT22;10420;48.542;12.270;2023-04-06T19:27:14;2.80;99.90
20524;DHT22;10420;48.542;12.270;2023-04-06T19:32:15;2.70;99.90
20524;DHT22;10420;48.542;12.270;2023-04-06T19:37:16;2.60;99.90
20524;DHT22;10420;48.542;12.270;2023-04-06T19:42:17;2.40;99.90
20524;DHT22;10420;48.542;12.270;2023-04-06T19:47:21;2.40;99.90
20524;DHT22;10420;48.542;12.270;2023-04-06T19:52:21;2.40;99.90
20524;DHT22;10420;48.542;12.270;2023-04-06T19:57:22;2.30;99.90
20524;DHT22;10420;48.542;12.270;2023-04-06T20:02:23;2.20;99.90
20524;DHT22;10420;48.542;12.270;2023-04-06T20:07:24;2.20;99.90
20524;DHT22;10420;48.542;12.270;2023-04-06T20:12:25;2.10;99.90
20524;DHT22;10420;48.542;12.270;2023-04-06T20:17:26;2.00;99.90
20524;DHT22;10420;48.542;12.270;2023-04-06T20:22:26;1.90;99.90
20524;DHT22;10420;48.542;12.270;2023-04-06T20:27:27;1.90;99.90
20524;DHT22;10420;48.542;12.270;2023-04-06T20:32:28;1.80;99.90
20524;DHT22;10420;48.542;12.270;2023-04-06T20:37:28;1.70;99.90
20524;DHT22;10420;48.542;12.270;2023-04-06T20:42:30;1.60;99.90
20524;DHT22;10420;48.542;12.270;2023-04-06T20:47:31;1.50;99.90
20524;DHT22;10420;48.542;12.270;2023-04-06T20:52:32;1.50;99.90
20524;DHT22;10420;48.542;12.270;2023-04-06T20:57:33;1.40;99.90
20524;DHT22;10420;48.542;12.270;2023-04-06T21:02:33;1.40;99.90
20524;DHT22;10420;48.542;12.270;2023-04-06T21:07:34;1.20;99.90
20524;DHT22;10420;48.542;12.270;2023-04-06T21:12:36;1.10;99.90
20524;DHT22;10420;48.542;12.270;2023-04-06T21:17:36;1.20;99.90
20524;DHT22;10420;48.542;12.270;2023-04-06T21:22:37;1.20;99.90
20524;DHT22;10420;48.542;12.270;2023-04-06T21:27:38;1.20;99.90
20524;DHT22;10420;48.542;12.270;2023-04-06T21:32:39;1.10;99.90
20524;DHT22;10420;48.542;12.270;2023-04-06T21:37:40;1.00;99.90
20524;DHT22;10420;48.542;12.270;2023-04-06T21:42:40;1.10;99.90
20524;DHT22;10420;48.542;12.270;2023-04-06T21:47:41;1.00;99.90
20524;DHT22;10420;48.542;12.270;2023-04-06T21:52:41;1.00;99.90
20524;DHT22;10420;48.542;12.270;2023-04-06T21:57:42;0.90;99.90
20524;DHT22;10420;48.542;12.270;2023-04-06T22:02:44;1.00;99.90
20524;DHT22;10420;48.542;12.270;2023-04-06T22:07:44;0.90;99.90
20524;DHT22;10420;48.542;12.270;2023-04-06T22:12:48;0.90;99.90
20524;DHT22;10420;48.542;12.270;2023-04-06T22:17:49;1.00;99.90
20524;DHT22;10420;48.542;12.270;2023-04-06T22:22:50;1.00;99.90
20524;DHT22;10420;48.542;12.270;2023-04-06T22:27:50;0.90;99.90
20524;DHT22;10420;48.542;12.270;2023-04-06T22:32:51;1.00;99.90
20524;DHT22;10420;48.542;12.270;2023-04-06T22:37:52;0.90;99.90
20524;DHT22;10420;48.542;12.270;2023-04-06T22:42:52;0.90;99.90
20524;DHT22;10420;48.542;12.270;2023-04-06T22:47:53;0.80;99.90
20524;DHT22;10420;48.542;12.270;2023-04-06T22:52:54;0.90;99.90
20524;DHT22;10420;48.542;12.270;2023-04-06T22:57:54;0.90;99.90
20524;DHT22;10420;48.542;12.270;2023-04-06T23:02:55;0.80;99.90
20524;DHT22;10420;48.542;12.270;2023-04-06T23:07:56;0.80;99.90
20524;DHT22;10420;48.542;12.270;2023-04-06T23:12:56;0.70;99.90
20524;DHT22;10420;48.542;12.270;2023-04-06T23:17:57;0.80;99.90
20524;DHT22;10420;48.542;12.270;2023-04-06T23:22:57;0.70;99.90
20524;DHT22;10420;48.542;12.270;2023-04-06T23:27:58;0.60;99.90
20524;DHT22;10420;48.542;12.270;2023-04-06T23:32:58;0.60;99.90
20524;DHT22;10420;48.542;12.270;2023-04-06T23:37:59;0.60;99.90
20524;DHT22;10420;48.542;12.270;2023-04-06T23:43:00;0.40;99.90
20524;DHT22;10420;48.542;12.270;2023-04-06T23:48:00;0.50;99.90
20524;DHT22;10420;48.542;12.270;2023-04-06T23:53:02;0.50;99.90
20524;DHT22;10420;48.542;12.270;2023-04-06T23:58:03;0.50;99.90
